TFM - Tactical Decision Aid (Experimental) INFO Settings
 
 

ID: Runway Winds: CIG/VIS Threshold: METAR Board: Map:

KDFW - Dallas/Fort Worth Intl

Updated at: 0629 UTC 01 Nov 2014
Latest TAF at: 0520 UTC 01 Nov 2014

TAF Board

Time0553Z01/07Z01/08Z01/09Z01/10Z01/11Z01/12Z01/13Z01/14Z01/15Z01/16Z01/17Z01/18Z01/19Z
TypeOBSPRVLPRVLPRVLPRVLPRVLPRVLPRVLPRVLPRVLPRVLPRVLPRVLPRVL
VIS10>6>6>6>6>6>6>6>6>6>6>6>6>6
CIG----------------------------
CoverFEWFEWFEWFEWFEWFEWFEWFEWFEWSCTSCTSCTSCTSCT
FltCat--VFRVFRVFRVFRVFRVFRVFRVFRVFRVFRVFRVFRVFR
WX----------------------------
WDir303030303030303030130130130130130
WSpd107777777788888
WGst----------------------------
TAF
KDFW 010520Z 0106/0212 03007KT P6SM FEW250
  FM011500 13008KT P6SM SCT250


METAR
KDFW 010553Z 03010KT 10SM FEW200 08/M02 A3037 RMK AO2 SLP279 T00831017 10144 20083 401940083 51006

TAF/METAR Board Legend

Potential Impact
  None Marginal Slight Moderate High
Visibility (sm) >5 3≤X≤5 1≤X<3 0.5≤X<1 <0.5
Ceiling (100 ft) >30 10≤X≤30 4≤X<10 2≤X<4 <2
Wind Speed (kt) <10 10≤X<20 20≤X<30 ≥30
Wind Gust (kt) <15 15≤X<25 25≤X<35 ≥35
Weather No Wx Reported VCTS -TS,-FZRA TS,FZRA +TS,+FZRA